首页
METAR-TAF:

METAR-TAF

机场 :

哈茨菲尔德-杰克逊亚特兰大国际机场

亚特兰大, 喬治亞, 美国

纬度: 33-38-25N, 经度: 084-25-37W, 海拔: 313米

当前天气观测

该预报发布于38分钟前的09:05 UTC
风速7节,风向
温度 7°C
湿度 93%
气压 1021 hPa
能見度: 6.4公里
多云层高于400英尺
阴天层高于1800英尺
小雨, 轻雾

METAR: KATL 150905Z 36007KT 4SM -RA BR BKN004 OVC018 07/06 A3015 RMK AO2 CIG 003V005 P0000 T00720056

时间: 04:43 (09:43 UTC)

预报

该预报发布于2小时和13分钟前的07:30 UTC
预报有效从15日的 08点(UTC)到 16日的 12点(UTC)
风速8节,风向北转东北
能見度: 6.4公里
多云层高于600英尺
阴天层高于1500英尺
小雨, 轻雾
短暂存在
从 15日的 08点(UTC)到 15日的 12点(UTC)
能見度: 3.2公里
阴天层高于400英尺
小雨, 毛毛雨, 轻雾
从 15日的 1200点(UTC)
风速10节,风向
能見度: 9.7公里
散云层高于500英尺
阴天层高于800英尺
小雨, 轻雾
从 15日的 1900点(UTC)
风速10节,风向
能見度: 10公里
散云层高于1500英尺
阴天层高于2200英尺
附近有阵雨
从 15日的 2300点(UTC)
风速8节,风向北转西北
能見度: 10公里
多云层高于4000英尺
从 16日的 0800点(UTC)
风速7节,风向北转西北
能見度: 10公里
散云层高于10000英尺

TAF: KATL 150730Z 1508/1612 03008KT 4SM -RA BR BKN006 OVC015 TEMPO 1508/1512 2SM -RADZ BR OVC004 FM151200 01010KT 6SM -RA BR SCT005 OVC008 FM151900 35010KT P6SM VCSH SCT015 OVC022 FM152300 34008KT P6SM BKN040 FM160800 33007KT P6SM SCT100

超过4000个机场的气象观测和天气预报(METAR&TAF报告)。

可查询的气象台以黄色和红色小点在地图上表示。

将鼠标移到小点上方,可查看气象台名称。

然后点击查看天气观测和预报。

如需切换地图:点击带黑十字的绿色按钮放大地图;点击带横线的绿色按钮缩小地图;或者点击绿色箭头查看邻近地区的地图。


METAR-TAF: